Terminal Aerodrome Forecast
Issued by NWS North Platte, NE

Home | Current Version | Previous Version | Text Only | Print | Product List | Glossary On
Versions: 1 2 3 4 5 6 7 8 9 10 11 12 13 14 15 16 17 18 19 20 21
000
FTUS43 KLBF 242320
TAFVTN
TAF
KVTN 242320Z 2500/2524 25016G21KT P6SM SKC
     FM250200 28013G19KT P6SM SKC
     FM250600 28015G20KT P6SM FEW050
     FM250900 28019G25KT P6SM BKN050
     FM251400 31023G32KT P6SM FEW200=

USA.gov is the U.S. government's official web portal to all federal, state and local government web resources and services.